Аэропорт: Жезказган. Жезказган

ICAO: UAKD

METAR:
2019/03/26 12:30
UAKD 261230Z 03002MPS 360V120 3000 -SHRA BR OVC023CB 08/07 Q1014 R22/2///50 NOSIG RMK QFE727/0970
METAR:
2017/04/10 09:39
TAF TAF UAKD 101100Z 1009/1021 16012MPS 9999 SCT100